createdAt,value
2019-03-27T00:01:38.126Z,99.90
2019-03-27T00:04:17.265Z,99.90
2019-03-27T00:06:55.458Z,99.90
2019-03-27T00:09:33.754Z,99.90
2019-03-27T00:12:11.618Z,99.90
2019-03-27T00:14:49.406Z,99.90
2019-03-27T00:17:27.547Z,99.90
2019-03-27T00:20:06.372Z,99.90
2019-03-27T00:22:45.631Z,99.90
2019-03-27T00:25:23.901Z,99.90
2019-03-27T00:28:01.883Z,99.90
2019-03-27T00:30:39.908Z,99.90
2019-03-27T00:33:23.200Z,99.90
2019-03-27T00:36:01.185Z,99.90
2019-03-27T00:38:39.008Z,99.90
2019-03-27T00:41:16.802Z,99.90
2019-03-27T00:43:55.240Z,99.90
2019-03-27T00:46:34.016Z,99.90
2019-03-27T00:49:11.748Z,99.90
2019-03-27T00:51:49.682Z,99.90
2019-03-27T00:54:28.777Z,99.90
2019-03-27T00:57:06.759Z,99.90
2019-03-27T00:59:44.523Z,99.90
2019-03-27T01:02:22.624Z,99.90
2019-03-27T01:05:00.611Z,99.90
2019-03-27T01:07:39.759Z,99.90
2019-03-27T01:10:19.187Z,99.90
2019-03-27T01:12:57.723Z,99.90
2019-03-27T01:15:40.050Z,99.90
2019-03-27T01:18:16.082Z,99.90
2019-03-27T01:20:54.848Z,99.90
2019-03-27T01:23:33.061Z,99.90
2019-03-27T01:26:11.223Z,99.90
2019-03-27T01:28:49.044Z,99.90
2019-03-27T01:31:26.807Z,99.90
2019-03-27T01:34:04.767Z,99.90
2019-03-27T01:36:42.683Z,99.90
2019-03-27T01:39:21.388Z,99.90
2019-03-27T01:41:59.247Z,99.90
2019-03-27T01:44:37.214Z,99.90
2019-03-27T01:47:14.956Z,99.90
2019-03-27T01:49:52.827Z,99.90
2019-03-27T01:52:30.801Z,99.90
2019-03-27T01:55:08.898Z,99.90
2019-03-27T01:57:47.827Z,99.90
2019-03-27T02:00:25.715Z,99.90
2019-03-27T02:03:03.573Z,99.90
2019-03-27T02:05:42.102Z,99.90
2019-03-27T02:08:20.420Z,99.90
2019-03-27T02:10:58.140Z,99.90
2019-03-27T02:13:36.094Z,99.90
2019-03-27T02:16:14.012Z,99.90
2019-03-27T02:18:51.982Z,99.90
2019-03-27T02:21:30.532Z,99.90
2019-03-27T02:24:08.536Z,99.90
2019-03-27T02:26:46.466Z,99.90
2019-03-27T02:29:24.340Z,99.90
2019-03-27T02:32:02.346Z,99.90
2019-03-27T02:34:40.433Z,99.90
2019-03-27T02:37:18.322Z,99.90
2019-03-27T02:39:56.225Z,99.90
2019-03-27T02:42:34.701Z,99.90
2019-03-27T02:45:13.216Z,99.90
2019-03-27T02:47:51.094Z,99.90
2019-03-27T02:50:29.760Z,99.90
2019-03-27T02:53:07.702Z,99.90
2019-03-27T02:55:45.681Z,99.90
2019-03-27T02:58:23.749Z,99.90
2019-03-27T03:01:02.171Z,99.90
2019-03-27T03:03:39.859Z,99.90
2019-03-27T03:06:17.710Z,99.90
2019-03-27T03:08:56.148Z,99.90
2019-03-27T03:11:34.134Z,99.90
2019-03-27T03:14:12.032Z,99.90
2019-03-27T03:16:50.125Z,99.90
2019-03-27T03:19:28.332Z,99.90
2019-03-27T03:22:07.187Z,99.90
2019-03-27T03:24:45.732Z,99.90
2019-03-27T03:27:24.573Z,99.90
2019-03-27T03:30:02.367Z,99.90
2019-03-27T03:32:41.076Z,99.90
2019-03-27T03:35:19.843Z,99.90
2019-03-27T03:37:57.836Z,99.90
2019-03-27T03:40:36.677Z,99.90
2019-03-27T03:43:14.495Z,99.90
2019-03-27T03:45:52.293Z,99.90
2019-03-27T03:48:30.588Z,99.90
2019-03-27T03:51:09.163Z,99.90
2019-03-27T03:53:47.620Z,99.90
2019-03-27T03:56:26.174Z,99.90
2019-03-27T03:59:04.564Z,99.90
2019-03-27T04:01:45.326Z,99.90
2019-03-27T04:04:34.817Z,99.90
2019-03-27T04:07:12.667Z,99.90
2019-03-27T04:09:50.495Z,99.90
2019-03-27T04:12:28.797Z,99.90
2019-03-27T04:15:07.196Z,99.90
2019-03-27T04:17:45.695Z,99.90
2019-03-27T04:20:23.427Z,99.90
2019-03-27T04:23:01.563Z,99.90
2019-03-27T04:26:07.160Z,99.90
2019-03-27T04:28:19.124Z,99.90
2019-03-27T04:30:56.969Z,99.90
2019-03-27T04:33:35.177Z,99.90
2019-03-27T04:36:13.006Z,99.90
2019-03-27T04:38:50.836Z,99.90
2019-03-27T04:41:28.580Z,99.90
2019-03-27T04:44:06.354Z,99.90
2019-03-27T04:46:44.141Z,99.90
2019-03-27T04:49:22.023Z,99.90
2019-03-27T04:51:59.852Z,99.90
2019-03-27T04:54:39.027Z,99.90
2019-03-27T04:57:16.847Z,99.90
2019-03-27T04:59:54.763Z,99.90
2019-03-27T05:02:32.630Z,99.70
2019-03-27T05:05:10.607Z,99.00
2019-03-27T05:07:48.260Z,98.50
2019-03-27T05:10:26.314Z,97.40
2019-03-27T05:13:04.104Z,96.80
2019-03-27T05:15:41.985Z,95.70
2019-03-27T05:18:19.829Z,94.40
2019-03-27T05:20:57.809Z,93.90
2019-03-27T05:23:35.751Z,93.80
2019-03-27T05:26:13.991Z,93.10
2019-03-27T05:28:51.793Z,92.10
2019-03-27T05:31:29.661Z,91.40
2019-03-27T05:34:07.537Z,90.80
2019-03-27T05:36:45.310Z,90.20
2019-03-27T05:39:23.343Z,89.50
2019-03-27T05:42:01.068Z,88.00
2019-03-27T05:44:38.841Z,86.90
2019-03-27T05:47:16.694Z,86.50
2019-03-27T05:49:54.691Z,86.10
2019-03-27T05:52:32.948Z,85.40
2019-03-27T05:55:10.960Z,83.60
2019-03-27T05:57:49.006Z,83.80
2019-03-27T06:00:26.841Z,88.40
2019-03-27T06:03:05.259Z,91.20
2019-03-27T06:05:43.234Z,92.50
2019-03-27T06:08:21.006Z,94.00
2019-03-27T06:10:58.721Z,94.20
2019-03-27T06:13:37.114Z,93.50
2019-03-27T06:16:14.854Z,92.60
2019-03-27T06:18:52.722Z,92.00
2019-03-27T06:21:31.333Z,91.10
2019-03-27T06:24:09.194Z,90.50
2019-03-27T06:26:47.134Z,87.50
2019-03-27T06:29:24.997Z,84.80
2019-03-27T06:32:02.887Z,84.30
2019-03-27T06:34:41.150Z,85.50
2019-03-27T06:37:19.043Z,88.60
2019-03-27T06:39:57.877Z,88.20
2019-03-27T06:42:39.611Z,86.60
2019-03-27T06:45:17.579Z,87.40
2019-03-27T06:47:55.649Z,87.30
2019-03-27T06:50:33.895Z,85.30
2019-03-27T06:53:12.273Z,86.30
2019-03-27T06:55:50.460Z,86.90
2019-03-27T06:58:28.361Z,88.20
2019-03-27T07:01:06.325Z,88.70
2019-03-27T07:03:44.305Z,84.00
2019-03-27T07:06:22.159Z,77.80
2019-03-27T07:09:00.428Z,75.70
2019-03-27T07:11:38.551Z,74.50
2019-03-27T07:14:16.257Z,73.50
2019-03-27T07:16:54.437Z,72.90
2019-03-27T07:19:32.389Z,73.30
2019-03-27T07:22:10.398Z,75.50
2019-03-27T07:24:48.719Z,76.80
2019-03-27T07:27:26.543Z,79.40
2019-03-27T07:30:05.133Z,81.40
2019-03-27T07:32:44.304Z,83.70
2019-03-27T07:35:22.024Z,83.70
2019-03-27T07:37:59.968Z,85.20
2019-03-27T07:40:38.052Z,87.20
2019-03-27T07:43:15.940Z,89.50
2019-03-27T07:45:54.235Z,90.40
2019-03-27T07:48:32.014Z,90.10
2019-03-27T07:51:10.253Z,89.90
2019-03-27T07:53:48.234Z,90.10
2019-03-27T07:56:26.153Z,89.10
2019-03-27T07:59:15.212Z,89.00
2019-03-27T08:01:53.208Z,87.70
2019-03-27T08:04:30.960Z,85.50
2019-03-27T08:07:08.860Z,79.40
2019-03-27T08:09:46.832Z,80.30
2019-03-27T08:12:24.555Z,81.00
2019-03-27T08:15:02.470Z,79.60
2019-03-27T08:17:40.718Z,76.10
2019-03-27T08:20:18.566Z,73.70
2019-03-27T08:22:56.783Z,68.80
2019-03-27T08:25:34.725Z,70.00
2019-03-27T08:28:12.686Z,70.40
2019-03-27T08:30:50.830Z,72.00
2019-03-27T08:33:28.914Z,74.90
2019-03-27T08:36:06.953Z,79.70
2019-03-27T08:38:45.275Z,81.40
2019-03-27T08:41:22.999Z,82.90
2019-03-27T08:44:01.408Z,84.00
2019-03-27T08:46:40.075Z,84.80
2019-03-27T08:49:22.281Z,85.50
2019-03-27T08:51:57.709Z,85.90
2019-03-27T08:54:35.689Z,83.80
2019-03-27T08:57:13.451Z,84.30
2019-03-27T08:59:51.355Z,85.90
2019-03-27T09:02:28.999Z,85.00
2019-03-27T09:05:07.951Z,84.30
2019-03-27T09:07:46.337Z,82.70
2019-03-27T09:10:24.269Z,82.10
2019-03-27T09:13:02.304Z,82.30
2019-03-27T09:15:40.371Z,81.60
2019-03-27T09:18:18.122Z,81.10
2019-03-27T09:20:56.278Z,79.70
2019-03-27T09:23:34.180Z,77.20
2019-03-27T09:26:12.352Z,77.70
2019-03-27T09:28:50.954Z,79.20
2019-03-27T09:31:28.740Z,81.00
2019-03-27T09:34:07.380Z,81.70
2019-03-27T09:36:56.848Z,83.10
2019-03-27T09:39:35.268Z,83.70
2019-03-27T09:42:15.740Z,82.10
2019-03-27T09:44:54.788Z,80.80
2019-03-27T09:47:34.615Z,80.10
2019-03-27T09:50:12.322Z,80.00
2019-03-27T09:52:50.209Z,80.50
2019-03-27T09:55:28.509Z,80.70
2019-03-27T09:58:06.277Z,81.40
2019-03-27T10:01:12.255Z,81.50
2019-03-27T10:03:50.143Z,82.40
2019-03-27T10:06:27.997Z,83.00
2019-03-27T10:09:07.546Z,83.70
2019-03-27T10:11:45.227Z,86.10
2019-03-27T10:14:22.883Z,86.30
2019-03-27T10:17:00.757Z,85.70
2019-03-27T10:19:38.575Z,87.40
2019-03-27T10:22:17.006Z,87.40
2019-03-27T10:24:54.761Z,88.30
2019-03-27T10:27:32.814Z,88.20
2019-03-27T10:30:11.361Z,88.50
2019-03-27T10:32:49.283Z,90.00
2019-03-27T10:35:27.449Z,89.90
2019-03-27T10:38:05.398Z,89.40
2019-03-27T10:40:43.335Z,90.10
2019-03-27T10:43:21.227Z,90.60
2019-03-27T10:45:59.061Z,90.60
2019-03-27T10:48:36.930Z,90.50
2019-03-27T10:51:15.424Z,90.80
2019-03-27T10:53:53.693Z,91.10
2019-03-27T10:56:32.529Z,90.90
2019-03-27T10:59:10.368Z,91.50
2019-03-27T11:01:48.090Z,91.80
2019-03-27T11:04:26.143Z,91.40
2019-03-27T11:07:04.571Z,91.20
2019-03-27T11:09:42.754Z,91.50
2019-03-27T11:12:20.721Z,91.80
2019-03-27T11:14:58.511Z,91.50
2019-03-27T11:17:36.504Z,91.60
2019-03-27T11:20:14.724Z,91.80
2019-03-27T11:22:52.892Z,92.10
2019-03-27T11:25:33.139Z,91.60
2019-03-27T11:28:10.440Z,92.50
2019-03-27T11:30:48.652Z,92.70
2019-03-27T11:33:29.014Z,93.20
2019-03-27T11:36:07.363Z,93.10
2019-03-27T11:38:45.351Z,92.70
2019-03-27T11:41:23.942Z,92.50
2019-03-27T11:44:02.004Z,92.20
2019-03-27T11:46:40.093Z,91.70
2019-03-27T11:49:17.786Z,91.00
2019-03-27T11:51:56.034Z,91.20
2019-03-27T11:54:33.817Z,91.30
2019-03-27T11:57:11.817Z,91.40
2019-03-27T11:59:54.094Z,91.10
2019-03-27T12:02:29.518Z,91.30
2019-03-27T12:05:08.103Z,91.40
2019-03-27T12:07:46.555Z,91.90
2019-03-27T12:10:24.639Z,92.40
2019-03-27T12:13:02.446Z,92.60
2019-03-27T12:15:41.902Z,92.30
2019-03-27T12:18:19.820Z,92.00
2019-03-27T12:20:59.622Z,91.40
2019-03-27T12:23:37.435Z,91.30
2019-03-27T12:26:15.579Z,91.00
2019-03-27T12:28:53.441Z,89.80
2019-03-27T12:31:42.077Z,89.70
2019-03-27T12:34:20.118Z,90.00
2019-03-27T12:36:58.025Z,90.00
2019-03-27T12:39:35.994Z,90.90
2019-03-27T12:42:14.068Z,91.80
2019-03-27T12:44:51.825Z,92.70
2019-03-27T12:47:29.514Z,92.60
2019-03-27T12:50:08.222Z,92.80
2019-03-27T12:52:46.009Z,92.60
2019-03-27T12:55:23.751Z,92.70
2019-03-27T12:58:03.145Z,92.70
2019-03-27T13:00:41.299Z,93.30
2019-03-27T13:03:19.153Z,94.30
2019-03-27T13:05:57.428Z,94.70
2019-03-27T13:08:35.052Z,95.40
2019-03-27T13:11:12.944Z,95.60
2019-03-27T13:13:50.949Z,96.30
2019-03-27T13:16:28.921Z,97.10
2019-03-27T13:19:07.260Z,97.50
2019-03-27T13:21:45.608Z,98.10
2019-03-27T13:24:23.492Z,98.80
2019-03-27T13:27:01.243Z,99.00
2019-03-27T13:29:39.415Z,99.10
2019-03-27T13:33:00.573Z,99.40
2019-03-27T13:36:08.375Z,99.70
2019-03-27T13:39:38.976Z,99.90
2019-03-27T13:42:53.409Z,99.90
2019-03-27T13:46:10.597Z,99.90
2019-03-27T13:48:56.112Z,99.90
2019-03-27T13:51:40.723Z,99.90
2019-03-27T13:54:15.141Z,99.90
2019-03-27T13:56:53.724Z,99.90
2019-03-27T13:59:31.431Z,99.90
2019-03-27T14:02:11.181Z,99.90
2019-03-27T14:04:49.138Z,99.90
2019-03-27T14:07:27.129Z,99.90
2019-03-27T14:10:08.007Z,99.90
2019-03-27T14:12:46.330Z,99.90
2019-03-27T14:15:24.667Z,99.90
2019-03-27T14:18:02.330Z,99.90
2019-03-27T14:20:41.407Z,99.90
2019-03-27T14:23:19.979Z,99.90
2019-03-27T14:25:58.005Z,99.90
2019-03-27T14:28:36.692Z,99.90
2019-03-27T14:31:14.754Z,99.90
2019-03-27T14:33:53.166Z,99.90
2019-03-27T14:36:31.212Z,99.90
2019-03-27T14:39:09.266Z,99.90
2019-03-27T14:41:47.090Z,99.90
2019-03-27T14:44:25.329Z,99.90
2019-03-27T14:47:03.608Z,99.90
2019-03-27T14:49:41.384Z,99.90
2019-03-27T14:52:20.274Z,99.90
2019-03-27T14:54:59.148Z,99.90
2019-03-27T14:57:38.376Z,99.90
2019-03-27T15:00:17.390Z,99.90
2019-03-27T15:02:56.021Z,99.90
2019-03-27T15:05:33.740Z,99.90
2019-03-27T15:08:11.673Z,99.90
2019-03-27T15:10:49.634Z,99.90
2019-03-27T15:13:27.352Z,99.90
2019-03-27T15:16:05.424Z,99.90
2019-03-27T15:18:43.473Z,99.90
2019-03-27T15:21:23.041Z,99.90
2019-03-27T15:24:01.315Z,99.90
2019-03-27T15:26:39.466Z,99.90
2019-03-27T15:29:17.372Z,99.90
2019-03-27T15:31:55.147Z,99.90
2019-03-27T15:34:33.276Z,99.90
2019-03-27T15:37:11.425Z,99.90
2019-03-27T15:39:49.360Z,99.90
2019-03-27T15:42:27.497Z,99.90
2019-03-27T15:45:06.935Z,99.90
2019-03-27T15:47:45.058Z,99.90
2019-03-27T15:50:24.130Z,99.90
2019-03-27T15:53:02.464Z,99.90
2019-03-27T15:55:42.379Z,99.90
2019-03-27T15:58:20.158Z,99.90
2019-03-27T16:00:58.146Z,99.90
2019-03-27T16:03:36.157Z,99.90
2019-03-27T16:06:15.347Z,99.90
2019-03-27T16:08:53.467Z,99.90
2019-03-27T16:11:31.783Z,99.90
2019-03-27T16:14:09.796Z,99.90
2019-03-27T16:17:06.772Z,99.90
2019-03-27T16:19:28.740Z,99.90
2019-03-27T16:22:07.639Z,99.90
2019-03-27T16:24:45.464Z,99.90
2019-03-27T16:27:23.305Z,99.90
2019-03-27T16:30:01.798Z,99.90
2019-03-27T16:32:39.781Z,99.90
2019-03-27T16:35:17.656Z,99.90
2019-03-27T16:37:55.730Z,99.90
2019-03-27T16:41:01.896Z,99.90
2019-03-27T16:43:40.062Z,99.90
2019-03-27T16:46:17.990Z,99.90
2019-03-27T16:48:55.878Z,99.90
2019-03-27T16:51:34.560Z,99.90
2019-03-27T16:54:12.707Z,99.90
2019-03-27T16:56:50.748Z,99.90
2019-03-27T16:59:28.532Z,99.90
2019-03-27T17:02:11.916Z,99.90
2019-03-27T17:04:49.939Z,99.90
2019-03-27T17:07:28.017Z,99.90
2019-03-27T17:10:06.418Z,99.90
2019-03-27T17:12:44.809Z,99.90
2019-03-27T17:15:22.565Z,99.90
2019-03-27T17:18:00.483Z,99.90
2019-03-27T17:20:38.586Z,99.90
2019-03-27T17:23:18.603Z,99.90
2019-03-27T17:25:56.313Z,99.90
2019-03-27T17:28:34.821Z,99.90
2019-03-27T17:31:12.867Z,99.90
2019-03-27T17:33:50.789Z,99.90
2019-03-27T17:36:28.773Z,99.90
2019-03-27T17:39:09.226Z,99.90
2019-03-27T17:41:47.251Z,99.90
2019-03-27T17:44:25.093Z,99.90
2019-03-27T17:47:03.000Z,99.90
2019-03-27T17:49:41.458Z,99.90
2019-03-27T17:52:19.553Z,99.90
2019-03-27T17:54:57.538Z,99.90
2019-03-27T17:57:36.660Z,99.90
2019-03-27T18:00:18.504Z,99.90
2019-03-27T18:02:56.602Z,99.90
2019-03-27T18:05:34.418Z,99.90
2019-03-27T18:08:12.401Z,99.90
2019-03-27T18:10:50.923Z,99.90
2019-03-27T18:13:29.050Z,99.90
2019-03-27T18:16:07.044Z,99.90
2019-03-27T18:18:44.994Z,99.90
2019-03-27T18:21:23.341Z,99.90
2019-03-27T18:24:01.324Z,99.90
2019-03-27T18:26:39.845Z,99.90
2019-03-27T18:29:17.644Z,99.90
2019-03-27T18:31:55.788Z,99.90
2019-03-27T18:34:34.046Z,99.90
2019-03-27T18:37:11.839Z,99.90
2019-03-27T18:39:49.758Z,99.90
2019-03-27T18:42:27.514Z,99.90
2019-03-27T18:45:06.355Z,99.90
2019-03-27T18:47:44.770Z,99.90
2019-03-27T18:50:22.501Z,99.90
2019-03-27T18:53:00.287Z,99.90
2019-03-27T18:55:38.096Z,99.90
2019-03-27T18:58:15.883Z,99.90
2019-03-27T19:00:53.961Z,99.90
2019-03-27T19:03:31.891Z,99.90
2019-03-27T19:06:12.970Z,99.90
2019-03-27T19:08:50.780Z,99.90
2019-03-27T19:11:29.416Z,99.90
2019-03-27T19:14:07.346Z,99.90
2019-03-27T19:16:45.649Z,99.90
2019-03-27T19:19:23.564Z,99.90
2019-03-27T19:22:01.649Z,99.90
2019-03-27T19:24:40.883Z,99.90
2019-03-27T19:27:18.930Z,99.90
2019-03-27T19:29:56.791Z,99.90
2019-03-27T19:32:35.597Z,99.90
2019-03-27T19:35:13.676Z,99.90
2019-03-27T19:37:52.136Z,99.90
2019-03-27T19:40:30.397Z,99.90
2019-03-27T19:43:09.148Z,99.90
2019-03-27T19:45:47.367Z,99.90
2019-03-27T19:48:25.388Z,99.90
2019-03-27T19:51:03.240Z,99.90
2019-03-27T19:53:41.566Z,99.90
2019-03-27T19:56:19.605Z,99.90
2019-03-27T19:58:58.025Z,99.90
2019-03-27T20:01:35.966Z,99.90
2019-03-27T20:04:19.523Z,99.90
2019-03-27T20:06:57.561Z,99.90
2019-03-27T20:09:35.387Z,99.90
2019-03-27T20:12:13.327Z,99.90
2019-03-27T20:14:51.320Z,99.90
2019-03-27T20:17:29.059Z,99.90
2019-03-27T20:20:08.658Z,99.90
2019-03-27T20:22:46.452Z,99.90
2019-03-27T20:25:24.453Z,99.90
2019-03-27T20:28:02.537Z,99.90
2019-03-27T20:30:40.637Z,99.90
2019-03-27T20:33:19.041Z,99.90
2019-03-27T20:35:57.318Z,99.90
2019-03-27T20:38:35.096Z,99.90
2019-03-27T20:41:12.961Z,99.90
2019-03-27T20:43:51.166Z,99.90
2019-03-27T20:46:29.550Z,99.90
2019-03-27T20:49:07.603Z,99.90
2019-03-27T20:51:46.004Z,99.90
2019-03-27T20:54:24.149Z,99.90
2019-03-27T20:57:02.315Z,99.90
2019-03-27T20:59:40.727Z,99.90
2019-03-27T21:02:20.486Z,99.90
2019-03-27T21:04:58.947Z,99.90
2019-03-27T21:07:36.954Z,99.90
2019-03-27T21:10:15.349Z,99.90
2019-03-27T21:12:53.549Z,99.90
2019-03-27T21:15:31.722Z,99.90
2019-03-27T21:18:09.952Z,99.90
2019-03-27T21:20:48.039Z,99.90
2019-03-27T21:23:25.981Z,99.90
2019-03-27T21:26:03.881Z,99.90
2019-03-27T21:28:42.727Z,99.90
2019-03-27T21:31:20.897Z,99.90
2019-03-27T21:33:58.882Z,99.90
2019-03-27T21:36:36.764Z,99.90
2019-03-27T21:39:15.091Z,99.90
2019-03-27T21:41:53.104Z,99.90
2019-03-27T21:44:30.902Z,99.90
2019-03-27T21:47:08.709Z,99.90
2019-03-27T21:49:48.942Z,99.90
2019-03-27T21:52:26.752Z,99.90
2019-03-27T21:55:04.801Z,99.90
2019-03-27T21:57:42.649Z,99.90
2019-03-27T22:00:36.264Z,99.90
2019-03-27T22:03:14.185Z,99.90
2019-03-27T22:05:57.734Z,99.90
2019-03-27T22:08:35.438Z,99.90
2019-03-27T22:11:13.333Z,99.90
2019-03-27T22:13:51.531Z,99.90
2019-03-27T22:16:29.339Z,99.90
2019-03-27T22:19:07.732Z,99.90
2019-03-27T22:21:45.529Z,99.90
2019-03-27T22:24:24.548Z,99.90
2019-03-27T22:27:02.450Z,99.90
2019-03-27T22:29:40.410Z,99.90
2019-03-27T22:32:18.590Z,99.90
2019-03-27T22:34:56.509Z,99.90
2019-03-27T22:37:34.469Z,99.90
2019-03-27T22:40:13.166Z,99.90
2019-03-27T22:42:50.857Z,99.90
2019-03-27T22:45:28.730Z,99.90
2019-03-27T22:48:06.865Z,99.90
2019-03-27T22:50:45.557Z,99.90
2019-03-27T22:53:23.989Z,99.90
2019-03-27T22:56:01.986Z,99.90
2019-03-27T22:58:39.863Z,99.90
2019-03-27T23:01:17.779Z,99.90
2019-03-27T23:03:55.718Z,99.90
2019-03-27T23:06:33.705Z,99.90
2019-03-27T23:09:11.593Z,99.90
2019-03-27T23:11:49.665Z,99.90
2019-03-27T23:14:28.033Z,99.90
2019-03-27T23:17:05.881Z,99.90
2019-03-27T23:19:44.113Z,99.90
2019-03-27T23:22:22.091Z,99.90
2019-03-27T23:25:00.545Z,99.90
2019-03-27T23:27:38.721Z,99.90
2019-03-27T23:30:16.962Z,99.90
2019-03-27T23:32:55.400Z,99.90
2019-03-27T23:35:33.196Z,99.90
2019-03-27T23:38:11.153Z,99.90
2019-03-27T23:40:49.221Z,99.90
2019-03-27T23:43:27.054Z,99.90
2019-03-27T23:46:07.483Z,99.90
2019-03-27T23:48:45.445Z,99.90
2019-03-27T23:51:23.556Z,99.90
2019-03-27T23:54:01.364Z,99.90
2019-03-27T23:56:39.296Z,99.90
2019-03-27T23:59:18.236Z,99.90
